Time;durP1;ratioP1;P1;durP2;ratioP2;P2;SDS_P1;SDS_P2;PMS_P1;PMS_P2;Temp;Humidity;BMP_temperature;BMP_pressure;BME280_temperature;BME280_humidity;BME280_pressure;Samples;Min_cycle;Max_cycle;Signal;HPM_P1;HPM_P2
2021/06/18 00:00:35;;;;;;;6.07;3.05;;;21.40;56.40;;;;;;6096922;23;20042;-71
2021/06/18 00:03:02;;;;;;;6.28;2.88;;;21.40;56.40;;;;;;6071096;23;20042;-74
2021/06/18 00:05:28;;;;;;;6.05;2.50;;;21.50;56.60;;;;;;6095301;23;20245;-75
2021/06/18 00:07:55;;;;;;;6.90;3.08;;;21.40;56.40;;;;;;6071210;23;20093;-74
2021/06/18 00:10:25;;;;;;;5.10;2.80;;;21.50;56.50;;;;;;6071086;23;20011;-74
2021/06/18 00:12:52;;;;;;;4.90;2.50;;;21.50;56.60;;;;;;6071082;23;20038;-71
2021/06/18 00:15:20;;;;;;;7.10;3.03;;;21.50;56.40;;;;;;6096911;23;20025;-74
2021/06/18 00:17:46;;;;;;;5.78;2.97;;;21.50;56.70;;;;;;6071015;23;20084;-71
2021/06/18 00:20:13;;;;;;;11.95;3.60;;;21.40;56.80;;;;;;6096855;23;20109;-71
2021/06/18 00:22:42;;;;;;;6.32;3.35;;;21.40;56.90;;;;;;6071031;23;20018;-71
2021/06/18 00:25:09;;;;;;;7.95;2.90;;;21.40;57.10;;;;;;6095072;23;20345;-71
2021/06/18 00:27:36;;;;;;;6.38;3.40;;;21.20;57.30;;;;;;6071114;23;20397;-71
2021/06/18 00:30:04;;;;;;;6.20;3.20;;;21.10;57.90;;;;;;6070657;23;20015;-74
2021/06/18 00:32:30;;;;;;;5.88;2.88;;;21.00;58.10;;;;;;6070945;23;20007;-71
2021/06/18 00:34:57;;;;;;;5.63;2.85;;;20.90;58.50;;;;;;6096685;23;20050;-71
2021/06/18 00:37:23;;;;;;;7.45;3.13;;;20.80;58.50;;;;;;6070944;23;20006;-71
2021/06/18 00:39:49;;;;;;;6.35;2.70;;;20.70;58.90;;;;;;6096518;23;20054;-74
2021/06/18 00:42:15;;;;;;;5.72;2.92;;;20.60;58.90;;;;;;6096806;23;20014;-71
2021/06/18 00:44:42;;;;;;;7.72;2.78;;;20.50;59.10;;;;;;6096459;23;20109;-74
2021/06/18 00:47:28;;;;;;;5.68;3.00;;;20.40;59.30;;;;;;6096457;23;20030;-70
2021/06/18 00:49:55;;;;;;;8.40;2.95;;;20.40;59.00;;;;;;6071075;23;20019;-74
2021/06/18 00:52:22;;;;;;;6.30;3.00;;;20.40;59.00;;;;;;6095068;23;20007;-71
2021/06/18 00:54:49;;;;;;;6.00;3.33;;;20.50;58.70;;;;;;6072522;23;20028;-74
2021/06/18 00:57:17;;;;;;;7.95;3.22;;;20.50;59.10;;;;;;6097064;23;20011;-72
2021/06/18 00:59:43;;;;;;;6.32;3.33;;;20.40;59.10;;;;;;6072734;23;20018;-71
2021/06/18 01:02:09;;;;;;;6.40;3.10;;;20.40;58.80;;;;;;6098344;23;20344;-74
2021/06/18 01:04:37;;;;;;;5.10;2.63;;;20.40;59.30;;;;;;6098314;23;20042;-75
2021/06/18 01:07:28;;;;;;;7.40;3.45;;;20.40;59.20;;;;;;6096764;23;20018;-74
2021/06/18 01:10:50;;;;;;;6.47;3.00;;;20.40;59.00;;;;;;6072959;23;20014;-74
2021/06/18 01:13:54;;;;;;;7.65;2.97;;;20.40;59.10;;;;;;6072806;23;20019;-70
2021/06/18 01:16:57;;;;;;;7.38;3.17;;;20.40;59.30;;;;;;6098197;23;20019;-74
2021/06/18 01:20:04;;;;;;;6.72;3.50;;;20.30;59.60;;;;;;6098260;23;20015;-70
2021/06/18 01:22:33;;;;;;;7.00;3.22;;;20.30;59.70;;;;;;6097943;23;20082;-74
2021/06/18 01:25:56;;;;;;;6.45;3.20;;;20.30;59.70;;;;;;6096703;23;20045;-74
2021/06/18 01:29:00;;;;;;;7.00;3.53;;;20.30;59.60;;;;;;6072535;23;20018;-74
2021/06/18 01:31:48;;;;;;;6.72;3.35;;;20.20;59.60;;;;;;6048397;23;20085;-71
2021/06/18 01:34:23;;;;;;;7.60;3.33;;;20.20;60.00;;;;;;6072600;23;20052;-74
2021/06/18 01:36:55;;;;;;;7.40;3.20;;;20.10;60.30;;;;;;6072356;23;20045;-74
2021/06/18 01:39:23;;;;;;;7.95;3.03;;;20.10;60.50;;;;;;6048598;23;20026;-71
2021/06/18 01:41:52;;;;;;;7.47;3.53;;;20.10;60.80;;;;;;6096368;23;20440;-71
2021/06/18 01:44:20;;;;;;;6.10;2.80;;;20.00;60.60;;;;;;6097934;23;20021;-74
2021/06/18 01:46:48;;;;;;;8.80;2.97;;;20.00;60.90;;;;;;6072288;23;20024;-71
2021/06/18 01:49:16;;;;;;;4.95;2.75;;;20.00;61.10;;;;;;6072405;23;20385;-74
2021/06/18 01:51:44;;;;;;;6.80;3.35;;;20.00;61.20;;;;;;6072358;23;20006;-71
2021/06/18 01:54:13;;;;;;;7.93;2.97;;;19.90;61.20;;;;;;6072301;23;20010;-71
2021/06/18 01:56:41;;;;;;;6.13;2.85;;;19.90;61.30;;;;;;6072337;23;20074;-74
2021/06/18 01:59:08;;;;;;;6.18;2.70;;;19.90;61.20;;;;;;6096210;23;20011;-71
2021/06/18 02:01:54;;;;;;;6.28;3.17;;;19.90;61.00;;;;;;6096124;23;20014;-71
2021/06/18 02:04:21;;;;;;;6.05;3.00;;;20.00;60.90;;;;;;6097750;23;20492;-74
2021/06/18 02:06:49;;;;;;;6.78;2.90;;;20.00;61.20;;;;;;6072183;23;20014;-74
2021/06/18 02:09:17;;;;;;;5.40;3.25;;;19.90;61.40;;;;;;6072288;23;20034;-74
2021/06/18 02:11:44;;;;;;;8.52;3.50;;;19.80;60.90;;;;;;6096075;23;20003;-71
2021/06/18 02:14:32;;;;;;;5.53;3.17;;;19.90;61.10;;;;;;6072136;23;20058;-74
2021/06/18 02:17:04;;;;;;;8.27;3.20;;;19.90;61.40;;;;;;6096235;23;20038;-71
2021/06/18 02:19:34;;;;;;;8.07;3.20;;;19.90;61.70;;;;;;6047957;23;20460;-70
2021/06/18 02:22:05;;;;;;;9.00;3.40;;;19.90;61.80;;;;;;6048052;23;20452;-71
2021/06/18 02:24:33;;;;;;;6.25;3.22;;;19.90;62.00;;;;;;6072047;23;20014;-71
2021/06/18 02:27:01;;;;;;;6.00;3.25;;;19.80;62.00;;;;;;6095997;23;20011;-74
2021/06/18 02:29:28;;;;;;;6.20;3.22;;;19.80;62.00;;;;;;6071820;23;20033;-71
2021/06/18 02:31:58;;;;;;;9.00;3.50;;;19.80;62.50;;;;;;6071931;23;20023;-74
2021/06/18 02:34:25;;;;;;;9.20;3.45;;;20.00;63.20;;;;;;6095942;23;20069;-71
2021/06/18 02:36:51;;;;;;;5.70;2.72;;;20.10;62.50;;;;;;6097647;23;20432;-71
2021/06/18 02:39:17;;;;;;;6.97;2.88;;;20.10;62.30;;;;;;6071931;23;20055;-73
2021/06/18 02:41:44;;;;;;;5.45;3.00;;;20.00;61.40;;;;;;6095810;23;20471;-74
2021/06/18 02:44:11;;;;;;;6.50;3.45;;;19.80;62.30;;;;;;6071607;23;20007;-71
2021/06/18 02:47:18;;;;;;;5.68;3.13;;;19.70;62.10;;;;;;6071869;23;20006;-71
2021/06/18 02:50:22;;;;;;;6.90;3.08;;;19.70;62.00;;;;;;6097527;23;20089;-74
2021/06/18 02:53:28;;;;;;;6.55;3.45;;;19.70;62.00;;;;;;6097122;23;20010;-71
2021/06/18 02:56:02;;;;;;;9.07;3.58;;;19.60;61.70;;;;;;6072027;23;20085;-71
2021/06/18 02:58:52;;;;;;;7.38;3.38;;;19.60;62.10;;;;;;6071827;23;20013;-70
2021/06/18 03:01:24;;;;;;;10.65;3.33;;;19.50;62.00;;;;;;6071687;23;20018;-74
2021/06/18 03:03:57;;;;;;;10.07;2.90;;;19.40;62.10;;;;;;6071677;23;20017;-74
2021/06/18 03:06:24;;;;;;;9.68;3.20;;;19.30;62.30;;;;;;6071673;23;20019;-74
2021/06/18 03:09:10;;;;;;;12.88;3.42;;;19.10;62.40;;;;;;6095644;23;20010;-71
2021/06/18 03:11:39;;;;;;;9.05;3.38;;;19.00;62.60;;;;;;6095550;23;20014;-71
2021/06/18 03:14:10;;;;;;;5.50;2.88;;;19.00;62.80;;;;;;6095493;23;20037;-74
2021/06/18 03:16:38;;;;;;;15.70;3.50;;;18.90;63.10;;;;;;6095208;23;20077;-74
2021/06/18 03:19:08;;;;;;;6.63;3.42;;;18.90;63.20;;;;;;6071376;23;20010;-71
2021/06/18 03:21:37;;;;;;;6.05;2.70;;;18.90;63.30;;;;;;6095402;23;20014;-74
2021/06/18 03:24:07;;;;;;;10.13;3.63;;;18.90;63.30;;;;;;6095365;23;20037;-71
2021/06/18 03:26:34;;;;;;;6.47;3.22;;;18.90;63.30;;;;;;6071437;23;20018;-74
2021/06/18 03:29:02;;;;;;;6.05;3.50;;;18.90;63.40;;;;;;6095358;23;20010;-74
2021/06/18 03:31:31;;;;;;;7.72;3.20;;;19.00;63.40;;;;;;6095096;23;20014;-70
2021/06/18 03:33:58;;;;;;;7.10;3.65;;;19.00;63.50;;;;;;6095442;23;20047;-71
2021/06/18 03:36:25;;;;;;;6.30;3.15;;;18.90;63.60;;;;;;6096752;23;20007;-71
2021/06/18 03:38:54;;;;;;;5.93;3.40;;;18.90;63.70;;;;;;6071456;23;20340;-75
2021/06/18 03:41:21;;;;;;;5.53;3.28;;;18.90;63.80;;;;;;6095178;23;20022;-70
2021/06/18 03:43:49;;;;;;;7.15;3.45;;;18.90;63.90;;;;;;6071365;23;20029;-71
2021/06/18 03:46:16;;;;;;;8.75;3.80;;;18.90;64.00;;;;;;6071619;23;20018;-74
2021/06/18 03:48:44;;;;;;;8.23;3.40;;;19.00;64.00;;;;;;6071135;23;20459;-74
2021/06/18 03:51:11;;;;;;;7.13;3.40;;;19.00;64.10;;;;;;6095067;23;20018;-75
2021/06/18 03:53:38;;;;;;;7.50;3.63;;;19.10;64.20;;;;;;6071178;23;20094;-71
2021/06/18 03:56:06;;;;;;;7.78;4.03;;;19.10;64.00;;;;;;6071245;23;20091;-74
2021/06/18 03:58:33;;;;;;;5.82;3.15;;;19.20;64.10;;;;;;6071280;23;20011;-71
2021/06/18 04:01:02;;;;;;;9.95;4.18;;;19.20;63.90;;;;;;6095071;23;20326;-71
2021/06/18 04:03:30;;;;;;;12.98;4.15;;;19.30;63.90;;;;;;6071062;23;20014;-71
2021/06/18 04:06:16;;;;;;;7.20;3.70;;;19.40;63.90;;;;;;6071386;23;20069;-71
2021/06/18 04:08:43;;;;;;;8.23;4.30;;;19.40;64.00;;;;;;6071165;23;20017;-71
2021/06/18 04:11:10;;;;;;;12.23;4.43;;;19.40;64.10;;;;;;6071271;23;20023;-70
2021/06/18 04:13:37;;;;;;;10.77;4.72;;;19.50;64.20;;;;;;6071132;23;20058;-72
2021/06/18 04:16:07;;;;;;;8.30;4.60;;;19.60;64.10;;;;;;6096946;23;20018;-71
2021/06/18 04:18:37;;;;;;;12.98;4.60;;;19.60;64.20;;;;;;6095067;23;20011;-74
2021/06/18 04:21:08;;;;;;;8.50;3.92;;;19.70;64.60;;;;;;6095074;23;20097;-74
2021/06/18 04:23:34;;;;;;;7.47;4.45;;;19.80;64.50;;;;;;6071062;23;20011;-74
2021/06/18 04:26:01;;;;;;;13.02;3.90;;;19.80;65.20;;;;;;6071185;23;20019;-70
2021/06/18 04:28:28;;;;;;;10.20;3.85;;;19.80;64.30;;;;;;6072478;23;20013;-72
2021/06/18 04:30:54;;;;;;;7.63;4.00;;;19.80;64.40;;;;;;6096838;23;20022;-74
2021/06/18 04:33:21;;;;;;;13.88;4.53;;;19.90;64.00;;;;;;6097165;23;20098;-71
2021/06/18 04:35:47;;;;;;;9.00;3.90;;;19.90;64.60;;;;;;6072682;23;20018;-70
2021/06/18 04:38:14;;;;;;;8.25;3.95;;;19.90;64.80;;;;;;6073092;23;20014;-74
2021/06/18 04:40:40;;;;;;;10.15;4.55;;;19.90;65.60;;;;;;6073087;23;20392;-71
2021/06/18 04:43:06;;;;;;;;;;;19.80;65.80;;;;;;6097756;23;20018;-74
2021/06/18 04:45:32;;;;;;;8.35;4.28;;;19.80;64.20;;;;;;6097110;23;20253;-71
2021/06/18 04:47:59;;;;;;;12.13;4.90;;;19.90;65.30;;;;;;6098529;23;20014;-72
2021/06/18 04:50:26;;;;;;;11.65;4.40;;;20.00;65.50;;;;;;6096935;23;20018;-70
2021/06/18 04:52:53;;;;;;;13.35;4.40;;;20.00;65.50;;;;;;6098773;23;20395;-74
2021/06/18 04:55:19;;;;;;;9.98;5.15;;;20.10;65.70;;;;;;6098715;23;20572;-71
2021/06/18 04:57:48;;;;;;;7.82;4.80;;;20.20;65.20;;;;;;6098338;23;20062;-74
2021/06/18 05:00:16;;;;;;;9.90;5.18;;;20.20;65.90;;;;;;6098646;23;20259;-74
2021/06/18 05:02:44;;;;;;;12.50;5.25;;;20.30;65.80;;;;;;6072681;23;20348;-74
2021/06/18 05:05:11;;;;;;;9.38;5.35;;;20.40;65.60;;;;;;6048829;23;20014;-74
2021/06/18 05:07:37;;;;;;;10.80;5.13;;;20.40;65.90;;;;;;6072828;23;20019;-71
2021/06/18 05:10:04;;;;;;;8.20;4.97;;;20.50;65.50;;;;;;6072969;23;20010;-74
2021/06/18 05:12:31;;;;;;;9.18;6.10;;;20.50;65.90;;;;;;6096811;23;20014;-71
2021/06/18 05:14:57;;;;;;;8.90;4.93;;;20.60;65.90;;;;;;6072329;23;20007;-75
2021/06/18 05:17:23;;;;;;;;;;;20.70;66.10;;;;;;6097444;23;20019;-71
2021/06/18 05:19:49;;;;;;;8.02;4.97;;;20.80;64.50;;;;;;6098159;23;20347;-71
2021/06/18 05:22:15;;;;;;;10.65;5.53;;;20.80;66.40;;;;;;6072638;23;20022;-74
2021/06/18 05:24:41;;;;;;;11.43;5.03;;;20.80;66.70;;;;;;6072404;23;20352;-71
2021/06/18 05:27:08;;;;;;;;;;;20.80;66.90;;;;;;6073369;23;20452;-74
2021/06/18 05:29:36;;;;;;;9.40;4.78;;;20.80;65.70;;;;;;6098093;23;19976;-71
2021/06/18 05:32:04;;;;;;;12.13;5.78;;;20.80;66.30;;;;;;6072542;23;20018;-73
2021/06/18 05:34:30;;;;;;;9.90;6.00;;;20.90;66.50;;;;;;6096524;23;20019;-71
2021/06/18 05:36:57;;;;;;;9.88;4.65;;;21.00;66.30;;;;;;6097955;23;20006;-71
2021/06/18 05:39:23;;;;;;;7.78;5.05;;;21.10;66.00;;;;;;6071976;23;20022;-74
2021/06/18 05:41:49;;;;;;;7.70;4.95;;;21.20;65.50;;;;;;6097787;23;20022;-74
2021/06/18 05:44:16;;;;;;;10.23;4.75;;;21.30;65.20;;;;;;6048410;23;20022;-74
2021/06/18 05:46:42;;;;;;;8.77;4.47;;;21.40;64.80;;;;;;6048388;23;20448;-74
2021/06/18 05:49:08;;;;;;;9.18;5.28;;;21.60;64.50;;;;;;6096354;23;20377;-74
2021/06/18 05:51:34;;;;;;;10.63;6.30;;;21.80;64.20;;;;;;6097882;23;20086;-71
2021/06/18 05:54:00;;;;;;;12.43;5.68;;;22.10;63.60;;;;;;6098192;23;20086;-71
2021/06/18 05:56:27;;;;;;;10.90;4.88;;;22.20;63.10;;;;;;6097499;23;20006;-74
2021/06/18 05:58:54;;;;;;;7.45;4.90;;;22.30;62.40;;;;;;6097637;23;20010;-71
2021/06/18 06:01:20;;;;;;;9.00;4.65;;;22.40;62.30;;;;;;6072219;23;20045;-74
2021/06/18 06:03:46;;;;;;;8.50;4.70;;;22.50;62.70;;;;;;6096216;23;20322;-72
2021/06/18 06:06:13;;;;;;;15.98;5.03;;;22.50;62.40;;;;;;6072405;23;20384;-74
2021/06/18 06:08:39;;;;;;;8.40;4.82;;;22.70;62.40;;;;;;6097631;23;20385;-71
2021/06/18 06:11:05;;;;;;;11.13;5.10;;;22.80;61.40;;;;;;6072385;23;20022;-74
2021/06/18 06:13:34;;;;;;;11.80;4.88;;;23.00;61.40;;;;;;6048043;23;20007;-74
2021/06/18 06:16:01;;;;;;;8.95;4.00;;;23.20;60.50;;;;;;6096412;23;20440;-71
2021/06/18 06:18:27;;;;;;;8.48;4.47;;;23.30;60.00;;;;;;6072113;23;20069;-75
2021/06/18 06:20:54;;;;;;;7.47;4.63;;;23.40;59.90;;;;;;6096286;23;20023;-74
2021/06/18 06:23:20;;;;;;;7.20;4.40;;;23.50;59.40;;;;;;6095778;23;20018;-72
2021/06/18 06:25:47;;;;;;;7.40;4.45;;;23.70;59.20;;;;;;6048061;23;20041;-74
2021/06/18 06:28:14;;;;;;;8.82;4.93;;;24.00;57.90;;;;;;6095957;23;20018;-71
2021/06/18 06:30:40;;;;;;;8.27;5.00;;;24.10;57.10;;;;;;6071754;23;20033;-74
2021/06/18 06:33:06;;;;;;;8.18;4.45;;;24.20;57.60;;;;;;6047919;23;20014;-74
2021/06/18 06:35:33;;;;;;;9.75;4.47;;;24.20;57.50;;;;;;6071730;23;20015;-73
2021/06/18 06:38:00;;;;;;;7.10;4.10;;;24.20;57.80;;;;;;6071895;23;20014;-75
2021/06/18 06:40:26;;;;;;;7.53;4.47;;;24.10;57.60;;;;;;6071924;23;20046;-72
2021/06/18 06:42:53;;;;;;;9.65;4.88;;;24.30;57.60;;;;;;6097153;23;20093;-72
2021/06/18 06:45:19;;;;;;;8.30;4.30;;;24.30;56.60;;;;;;6071926;23;20030;-72
2021/06/18 06:47:46;;;;;;;7.03;4.28;;;24.40;56.10;;;;;;6095892;23;20038;-75
2021/06/18 06:50:13;;;;;;;6.10;3.65;;;24.50;56.40;;;;;;6095704;23;20018;-75
2021/06/18 06:52:40;;;;;;;9.40;4.30;;;24.60;55.70;;;;;;6071342;23;20026;-76
2021/06/18 06:55:07;;;;;;;10.05;4.57;;;24.70;55.60;;;;;;6071917;23;20018;-72
2021/06/18 06:57:33;;;;;;;7.88;4.40;;;24.70;55.60;;;;;;6095665;23;20020;-71
2021/06/18 07:00:00;;;;;;;7.55;4.65;;;24.80;54.70;;;;;;6071791;23;20105;-72
2021/06/18 07:02:26;;;;;;;8.45;5.00;;;25.00;54.80;;;;;;6071471;23;20014;-75
2021/06/18 07:04:52;;;;;;;7.85;4.32;;;25.00;54.30;;;;;;6071561;23;20040;-74
2021/06/18 07:07:18;;;;;;;8.50;4.15;;;25.20;54.40;;;;;;6097106;23;20378;-74
2021/06/18 07:09:45;;;;;;;8.65;5.15;;;25.30;54.00;;;;;;6071465;23;20022;-71
2021/06/18 07:12:11;;;;;;;7.63;4.50;;;25.50;53.20;;;;;;6097062;23;20033;-72
2021/06/18 07:14:40;;;;;;;9.20;4.55;;;25.60;52.70;;;;;;6097106;23;20018;-74
2021/06/18 07:17:07;;;;;;;11.57;5.43;;;25.80;52.70;;;;;;6072026;23;20345;-75
2021/06/18 07:19:33;;;;;;;7.28;4.28;;;25.90;52.00;;;;;;6071241;23;20027;-72
2021/06/18 07:22:00;;;;;;;14.25;6.22;;;26.00;51.10;;;;;;6095488;23;20018;-72
2021/06/18 07:24:27;;;;;;;16.63;6.30;;;26.00;51.50;;;;;;6047497;23;20018;-72
2021/06/18 07:26:53;;;;;;;10.65;5.03;;;26.10;51.60;;;;;;6071347;23;20398;-74
2021/06/18 07:29:20;;;;;;;9.95;4.85;;;26.20;50.90;;;;;;6095369;23;20015;-75
2021/06/18 07:31:46;;;;;;;11.27;5.13;;;26.30;50.90;;;;;;6071363;23;20085;-72
2021/06/18 07:34:13;;;;;;;11.93;4.97;;;26.40;50.70;;;;;;6071389;23;20389;-74
2021/06/18 07:36:40;;;;;;;7.65;4.25;;;26.50;51.20;;;;;;6096827;23;20340;-75
2021/06/18 07:39:08;;;;;;;10.27;6.03;;;26.50;49.10;;;;;;6096181;23;20014;-72
2021/06/18 07:41:37;;;;;;;9.65;4.97;;;26.60;49.70;;;;;;6095639;23;20010;-71
2021/06/18 07:44:24;;;;;;;7.80;4.60;;;26.70;48.90;;;;;;6095132;23;20021;-71
2021/06/18 07:46:50;;;;;;;9.93;4.43;;;26.80;49.10;;;;;;6096699;23;20085;-75
2021/06/18 07:49:17;;;;;;;25.58;6.05;;;26.90;48.30;;;;;;6070985;23;20352;-75
2021/06/18 07:51:43;;;;;;;9.80;4.93;;;27.00;48.90;;;;;;6096616;23;20085;-76
2021/06/18 07:54:10;;;;;;;8.75;4.35;;;27.00;48.30;;;;;;6096548;23;20006;-75
2021/06/18 07:59:21;;;;;;;10.52;4.85;;;27.20;48.30;;;;;;6075213;23;20025;-73
2021/06/18 08:01:47;;;;;;;12.77;4.70;;;27.30;47.90;;;;;;6071004;23;20015;-72
2021/06/18 08:04:14;;;;;;;9.18;4.88;;;27.30;47.10;;;;;;6071106;23;20344;-73
2021/06/18 08:06:41;;;;;;;9.43;5.10;;;27.50;46.70;;;;;;6071143;23;20010;-73
2021/06/18 08:09:07;;;;;;;8.38;5.22;;;27.60;47.10;;;;;;6046929;23;20085;-75
2021/06/18 08:11:34;;;;;;;8.10;4.97;;;27.60;46.50;;;;;;6094909;23;20021;-74
2021/06/18 08:14:00;;;;;;;8.30;4.35;;;27.60;45.50;;;;;;6071189;23;20037;-75
2021/06/18 08:16:26;;;;;;;9.30;5.15;;;27.70;46.30;;;;;;6096418;23;20479;-72
2021/06/18 08:18:53;;;;;;;14.20;4.20;;;27.70;46.40;;;;;;6096371;23;20345;-72
2021/06/18 08:21:20;;;;;;;10.68;4.85;;;27.80;45.90;;;;;;6071108;23;20006;-75
2021/06/18 08:23:46;;;;;;;8.35;4.40;;;27.90;46.30;;;;;;6096344;23;20019;-72
2021/06/18 08:26:12;;;;;;;8.35;4.82;;;28.10;46.30;;;;;;6071127;23;20101;-72
2021/06/18 08:28:39;;;;;;;8.73;4.55;;;28.20;46.70;;;;;;6071020;23;20021;-72
2021/06/18 08:31:06;;;;;;;14.32;4.82;;;28.30;46.00;;;;;;6096298;23;20022;-72
2021/06/18 08:33:34;;;;;;;17.23;5.20;;;28.40;45.90;;;;;;6070844;23;20015;-72
2021/06/18 08:36:01;;;;;;;7.82;3.88;;;28.50;45.20;;;;;;6071136;23;20022;-75
2021/06/18 08:38:28;;;;;;;7.90;4.25;;;28.60;44.80;;;;;;6070878;23;20010;-75
2021/06/18 08:40:54;;;;;;;8.05;4.50;;;28.70;44.60;;;;;;6096909;23;20046;-72
2021/06/18 08:43:22;;;;;;;10.30;4.45;;;28.70;44.50;;;;;;6071173;23;20405;-71
2021/06/18 08:45:48;;;;;;;8.23;4.03;;;28.70;44.30;;;;;;6095025;23;20018;-72
2021/06/18 08:48:15;;;;;;;8.60;4.60;;;28.80;44.40;;;;;;6071007;23;20440;-72
2021/06/18 08:50:43;;;;;;;13.68;4.40;;;28.90;43.90;;;;;;6070679;23;20456;-75
2021/06/18 08:53:11;;;;;;;8.68;4.38;;;28.90;44.20;;;;;;6096474;23;20418;-75
2021/06/18 08:55:37;;;;;;;7.85;4.60;;;29.00;43.10;;;;;;6094647;23;20495;-72
2021/06/18 08:58:04;;;;;;;10.90;4.93;;;29.10;43.60;;;;;;6071072;23;20021;-75
2021/06/18 09:00:32;;;;;;;8.77;4.72;;;29.20;42.60;;;;;;6095011;23;20029;-75
2021/06/18 09:02:59;;;;;;;19.15;5.03;;;29.20;41.80;;;;;;6094951;23;20010;-72
2021/06/18 09:05:27;;;;;;;8.45;3.97;;;29.40;42.10;;;;;;6070864;23;20432;-72
2021/06/18 09:08:13;;;;;;;10.63;3.97;;;29.40;41.00;;;;;;6094935;23;20014;-76
2021/06/18 09:10:42;;;;;;;9.50;4.18;;;29.50;41.40;;;;;;6094898;23;20097;-72
2021/06/18 09:13:12;;;;;;;14.57;4.30;;;29.60;41.70;;;;;;6096420;23;20026;-72
2021/06/18 09:16:00;;;;;;;11.73;3.83;;;29.70;41.30;;;;;;6096383;23;20021;-72
2021/06/18 09:18:45;;;;;;;6.70;3.80;;;29.80;41.50;;;;;;6096812;23;20010;-72
2021/06/18 09:21:30;;;;;;;8.57;4.40;;;29.80;40.00;;;;;;6098677;23;20070;-72
2021/06/18 09:23:57;;;;;;;10.93;4.40;;;29.80;40.70;;;;;;6072442;23;20010;-76
2021/06/18 09:26:43;;;;;;;22.85;4.47;;;29.90;38.70;;;;;;6098101;23;20094;-73
2021/06/18 09:29:28;;;;;;;8.65;3.88;;;30.00;40.10;;;;;;6098061;23;20078;-73
2021/06/18 09:31:59;;;;;;;14.07;3.92;;;30.30;39.80;;;;;;6072308;23;20018;-72
2021/06/18 09:37:38;;;;;;;8.27;3.80;;;30.70;39.40;;;;;;6076371;23;20021;-76
2021/06/18 09:40:23;;;;;;;8.48;3.80;;;30.90;39.00;;;;;;6096542;23;20029;-72
2021/06/18 09:43:14;;;;;;;7.15;3.50;;;31.30;38.90;;;;;;6072420;23;20448;-75
2021/06/18 09:45:41;;;;;;;9.82;3.40;;;31.80;38.10;;;;;;6073579;23;20467;-75
2021/06/18 09:48:34;;;;;;;10.27;3.53;;;32.40;36.50;;;;;;6072458;23;20019;-72
2021/06/18 09:51:02;;;;;;;9.45;3.35;;;33.10;35.60;;;;;;6072377;23;20048;-71
2021/06/18 09:53:31;;;;;;;6.25;3.67;;;33.60;33.00;;;;;;6096266;23;20006;-75
2021/06/18 09:56:19;;;;;;;9.52;3.65;;;34.20;32.00;;;;;;6072867;23;20437;-75
2021/06/18 09:58:47;;;;;;;11.80;4.85;;;34.90;31.60;;;;;;6072297;23;20050;-76
2021/06/18 10:01:34;;;;;;;7.20;3.45;;;35.40;30.80;;;;;;6098190;23;20023;-76
2021/06/18 10:04:19;;;;;;;6.07;3.33;;;36.20;29.90;;;;;;6097628;23;20021;-73
2021/06/18 10:06:45;;;;;;;6.68;3.28;;;36.90;29.20;;;;;;6072162;23;20104;-76
2021/06/18 10:12:00;;;;;;;7.97;2.75;;;37.90;27.30;;;;;;6096365;23;20006;-72
2021/06/18 10:14:26;;;;;;;6.45;3.20;;;38.50;26.70;;;;;;6071995;23;20066;-76
2021/06/18 10:16:54;;;;;;;6.38;2.97;;;39.10;26.20;;;;;;6072149;23;20030;-76
2021/06/18 10:19:21;;;;;;;5.65;3.20;;;39.70;25.70;;;;;;6072113;23;20018;-76
2021/06/18 10:22:09;;;;;;;5.30;2.90;;;40.20;24.90;;;;;;6048180;23;20014;-72
2021/06/18 10:24:57;;;;;;;5.13;2.85;;;40.70;24.20;;;;;;6097531;23;20094;-76
2021/06/18 10:27:46;;;;;;;10.30;3.72;;;41.20;23.80;;;;;;6097529;23;20006;-72
2021/06/18 10:30:33;;;;;;;5.60;2.90;;;41.80;23.30;;;;;;6071738;23;20026;-72
2021/06/18 10:33:21;;;;;;;6.20;2.70;;;42.40;22.50;;;;;;6097492;23;20010;-76
2021/06/18 10:35:57;;;;;;;7.45;3.58;;;42.70;18.80;;;;;;6097086;23;20021;-72
2021/06/18 10:38:44;;;;;;;18.13;3.22;;;42.90;20.50;;;;;;6097569;23;20017;-73
2021/06/18 10:41:29;;;;;;;7.32;2.70;;;43.50;21.00;;;;;;6072023;23;20321;-73
2021/06/18 10:43:58;;;;;;;8.57;2.80;;;43.80;19.10;;;;;;6071860;23;20018;-76
2021/06/18 10:46:36;;;;;;;4.68;2.50;;;44.30;19.10;;;;;;6071826;23;20014;-73
2021/06/18 10:49:15;;;;;;;6.38;3.00;;;44.80;19.00;;;;;;6072468;23;20018;-77
2021/06/18 10:51:50;;;;;;;6.75;3.70;;;45.30;18.80;;;;;;6095709;23;20416;-76
2021/06/18 10:54:26;;;;;;;5.43;2.92;;;45.50;16.60;;;;;;6095873;23;20050;-76
2021/06/18 10:57:12;;;;;;;6.45;3.10;;;45.70;17.30;;;;;;6072408;23;20452;-72
2021/06/18 10:59:46;;;;;;;4.85;2.60;;;46.20;17.60;;;;;;6095731;23;20015;-73
2021/06/18 11:02:21;;;;;;;6.53;2.65;;;46.90;16.40;;;;;;6071941;23;20015;-73
2021/06/18 11:05:12;;;;;;;11.77;3.17;;;47.20;16.50;;;;;;6071289;23;20015;-76
2021/06/18 11:07:40;;;;;;;8.35;2.80;;;47.10;17.10;;;;;;6097144;23;20061;-76
2021/06/18 11:10:26;;;;;;;5.15;2.83;;;47.60;16.40;;;;;;6071669;23;20018;-72
2021/06/18 11:13:12;;;;;;;6.03;3.17;;;48.20;16.00;;;;;;6071477;23;20040;-73
2021/06/18 11:16:00;;;;;;;5.60;3.60;;;48.80;16.00;;;;;;6071563;23;20018;-72
2021/06/18 11:18:45;;;;;;;9.65;4.03;;;49.10;16.40;;;;;;6095679;23;20448;-72
2021/06/18 11:21:11;;;;;;;7.65;3.72;;;49.40;16.20;;;;;;6097437;23;20085;-73
2021/06/18 11:23:57;;;;;;;9.05;3.72;;;49.50;16.00;;;;;;6071710;23;20511;-76
2021/06/18 11:26:23;;;;;;;5.68;3.50;;;49.80;15.70;;;;;;6096970;23;20015;-74
2021/06/18 11:28:51;;;;;;;9.98;3.40;;;50.20;15.40;;;;;;6095417;23;20480;-76
2021/06/18 11:31:54;;;;;;;8.57;3.30;;;50.60;14.90;;;;;;6070953;23;20038;-77
2021/06/18 11:34:39;;;;;;;5.40;3.10;;;50.80;14.70;;;;;;6096858;23;20019;-73
2021/06/18 11:37:06;;;;;;;7.10;3.58;;;51.00;15.00;;;;;;6095087;23;20452;-73
2021/06/18 11:39:32;;;;;;;8.10;3.40;;;51.30;14.40;;;;;;6096876;23;20401;-73
2021/06/18 11:42:00;;;;;;;5.47;3.58;;;51.70;14.00;;;;;;6096761;23;20011;-77
2021/06/18 11:44:27;;;;;;;6.93;3.60;;;51.90;13.10;;;;;;6071262;23;20028;-73
2021/06/18 11:46:56;;;;;;;6.20;3.40;;;52.00;13.50;;;;;;6096708;23;20007;-73
2021/06/18 11:49:25;;;;;;;6.70;3.10;;;52.20;13.60;;;;;;6095136;23;20093;-73
2021/06/18 11:52:19;;;;;;;9.52;3.90;;;52.30;12.80;;;;;;6096631;23;20017;-73
2021/06/18 11:54:45;;;;;;;5.57;3.38;;;52.30;13.30;;;;;;6096678;23;20046;-73
2021/06/18 11:57:19;;;;;;;6.53;3.45;;;52.60;13.60;;;;;;6096692;23;20011;-77
2021/06/18 12:00:05;;;;;;;7.15;2.92;;;52.50;12.30;;;;;;6071946;23;20093;-77
2021/06/18 12:02:34;;;;;;;8.50;3.63;;;52.80;12.90;;;;;;6096558;23;20025;-73
2021/06/18 12:05:21;;;;;;;5.85;3.50;;;53.00;12.80;;;;;;6071386;23;20026;-77
2021/06/18 12:07:48;;;;;;;5.97;3.60;;;53.30;12.60;;;;;;6097053;23;20030;-73
2021/06/18 12:10:34;;;;;;;4.72;3.58;;;53.50;12.70;;;;;;6096753;23;20022;-73
2021/06/18 12:13:00;;;;;;;7.22;3.88;;;53.60;12.30;;;;;;6097421;23;20446;-73
2021/06/18 12:15:45;;;;;;;5.85;3.70;;;53.40;12.00;;;;;;6096801;23;20024;-77
2021/06/18 12:18:12;;;;;;;5.60;4.10;;;53.30;12.70;;;;;;6095078;23;20373;-75
2021/06/18 12:20:42;;;;;;;5.55;3.45;;;53.50;12.80;;;;;;6097039;23;20022;-76
2021/06/18 12:23:27;;;;;;;7.28;3.60;;;53.60;11.40;;;;;;6071127;23;20085;-72
2021/06/18 12:25:53;;;;;;;7.47;4.00;;;53.10;12.90;;;;;;6097022;23;20057;-73
2021/06/18 12:28:20;;;;;;;6.10;3.72;;;52.90;12.60;;;;;;6096712;23;20475;-77
2021/06/18 12:30:47;;;;;;;6.68;3.40;;;53.00;12.40;;;;;;6096327;23;20363;-76
2021/06/18 12:33:16;;;;;;;7.68;3.53;;;53.00;12.40;;;;;;6095095;23;20011;-72
2021/06/18 12:35:44;;;;;;;5.75;3.63;;;52.60;12.80;;;;;;6095265;23;20302;-72
2021/06/18 12:38:13;;;;;;;6.43;3.75;;;52.60;12.50;;;;;;6071154;23;20491;-75
2021/06/18 12:41:04;;;;;;;6.03;4.20;;;52.50;12.60;;;;;;6071088;23;20030;-76
2021/06/18 12:43:35;;;;;;;8.23;3.50;;;52.10;13.00;;;;;;6096421;23;20063;-72
2021/06/18 12:46:03;;;;;;;6.43;3.78;;;51.80;13.00;;;;;;6097071;23;20352;-75
2021/06/18 12:48:32;;;;;;;6.07;3.58;;;51.60;13.20;;;;;;6071356;23;20010;-72
2021/06/18 12:51:01;;;;;;;9.40;3.85;;;51.60;13.00;;;;;;6096854;23;20098;-76
2021/06/18 12:53:48;;;;;;;5.00;3.45;;;51.50;13.20;;;;;;6073073;23;20054;-72
2021/06/18 12:56:51;;;;;;;6.15;3.40;;;51.10;13.40;;;;;;6098685;23;20443;-73
2021/06/18 12:59:17;;;;;;;5.82;3.35;;;50.30;14.10;;;;;;6072895;23;20042;-72
2021/06/18 13:01:45;;;;;;;7.35;3.70;;;49.40;14.70;;;;;;6096772;23;20436;-76
2021/06/18 13:04:12;;;;;;;8.90;3.95;;;47.80;15.50;;;;;;6098116;23;20038;-72
2021/06/18 13:06:59;;;;;;;6.32;3.65;;;46.50;16.60;;;;;;6072964;23;20017;-72
2021/06/18 13:09:49;;;;;;;6.95;4.65;;;45.30;17.40;;;;;;6098409;23;20447;-72
2021/06/18 13:12:21;;;;;;;5.28;3.15;;;44.40;18.20;;;;;;6096905;23;20015;-76
2021/06/18 13:14:47;;;;;;;4.88;3.47;;;43.60;18.00;;;;;;6098346;23;20018;-72
2021/06/18 13:17:13;;;;;;;8.85;3.70;;;42.80;19.00;;;;;;6072642;23;20038;-72